Time;durP1;ratioP1;P1;durP2;ratioP2;P2;SDS_P1;SDS_P2;PMS_P1;PMS_P2;Temp;Humidity;BMP_temperature;BMP_pressure;BME280_temperature;BME280_humidity;BME280_pressure;Samples;Min_cycle;Max_cycle;Signal;HPM_P1;HPM_P2
2023/12/07 00:02:55;;;;;;;;;;;;;;;16.98;43.06;99945.22;10325902;28;1601;-68
2023/12/07 00:07:51;;;;;;;;;;;;;;;16.96;43.10;99953.16;10325557;28;1894;-69
2023/12/07 00:12:47;;;;;;;;;;;;;;;16.96;43.04;99962.84;10325525;28;782;-68
2023/12/07 00:17:43;;;;;;;;;;;;;;;16.95;42.94;99958.47;10325705;28;838;-69
2023/12/07 00:22:39;;;;;;;;;;;;;;;16.94;43.11;99970.78;10326279;28;787;-68
2023/12/07 00:27:35;;;;;;;;;;;;;;;16.96;43.20;99968.13;10325161;28;1959;-68
2023/12/07 00:32:30;;;;;;;;;;;;;;;16.96;43.28;99970.75;10324968;28;1396;-68
2023/12/07 00:37:27;;;;;;;;;;;;;;;16.94;43.05;99975.22;10325966;28;905;-68
2023/12/07 00:42:23;;;;;;;;;;;;;;;16.93;43.36;99970.88;10324991;28;881;-68
2023/12/07 00:47:18;;;;;;;;;;;;;;;16.95;43.33;99974.28;10325237;28;1910;-68
2023/12/07 00:52:14;;;;;;;;;;;;;;;16.95;43.24;99975.16;10324733;28;772;-68
2023/12/07 00:57:10;;;;;;;;;;;;;;;16.93;43.30;99968.22;10328031;28;841;-68
2023/12/07 01:02:06;;;;;;;;;;;;;;;16.92;43.19;99975.25;10332571;28;910;-68
2023/12/07 01:07:02;;;;;;;;;;;;;;;16.91;43.18;99985.84;10332839;28;1898;-68
2023/12/07 01:11:58;;;;;;;;;;;;;;;16.92;43.13;99990.19;10332123;28;966;-68
2023/12/07 01:16:54;;;;;;;;;;;;;;;16.93;43.43;99989.31;10333357;28;853;-69
2023/12/07 01:21:50;;;;;;;;;;;;;;;16.91;43.29;99989.34;10332260;28;1045;-69
2023/12/07 01:26:46;;;;;;;;;;;;;;;16.88;43.14;99992.09;10331490;28;1902;-68
2023/12/07 01:31:42;;;;;;;;;;;;;;;16.86;43.44;99984.22;10331383;28;951;-68
2023/12/07 01:36:38;;;;;;;;;;;;;;;16.86;43.38;100000.03;10331705;28;1372;-68
2023/12/07 01:41:34;;;;;;;;;;;;;;;16.86;43.44;100004.44;10330908;28;898;-69
2023/12/07 01:46:30;;;;;;;;;;;;;;;16.84;43.53;100001.84;10331321;28;1976;-68
2023/12/07 01:51:26;;;;;;;;;;;;;;;16.82;43.46;100002.81;10330536;28;981;-68
2023/12/07 01:56:22;;;;;;;;;;;;;;;16.83;43.46;99994.03;10330468;28;913;-68
2023/12/07 02:01:18;;;;;;;;;;;;;;;16.83;43.41;99999.28;10330263;28;946;-68
2023/12/07 02:06:13;;;;;;;;;;;;;;;16.80;43.49;100010.78;10329913;28;1898;-68
2023/12/07 02:11:09;;;;;;;;;;;;;;;16.83;43.46;100012.44;10329973;28;834;-68
2023/12/07 02:16:05;;;;;;;;;;;;;;;16.82;43.36;100029.13;10329656;28;923;-69
2023/12/07 02:21:01;;;;;;;;;;;;;;;16.79;43.40;100030.13;10330215;28;859;-68
2023/12/07 02:25:57;;;;;;;;;;;;;;;16.79;43.27;100024.88;10329848;28;1947;-68
2023/12/07 02:30:53;;;;;;;;;;;;;;;16.79;43.65;100029.25;10329791;28;910;-68
2023/12/07 02:35:49;;;;;;;;;;;;;;;16.79;43.48;100030.13;10328963;28;1150;-68
2023/12/07 02:40:45;;;;;;;;;;;;;;;16.80;43.40;100031.00;10328654;28;989;-68
2023/12/07 02:45:41;;;;;;;;;;;;;;;16.79;43.29;100029.25;10328448;28;1918;-68
2023/12/07 02:50:37;;;;;;;;;;;;;;;16.79;43.47;100022.25;10328356;28;838;-68
2023/12/07 02:55:33;;;;;;;;;;;;;;;16.80;43.41;100031.84;10328727;28;810;-69
2023/12/07 03:00:28;;;;;;;;;;;;;;;16.81;43.41;100028.28;10329396;28;984;-68
2023/12/07 03:05:24;;;;;;;;;;;;;;;16.81;43.29;100027.44;10327702;28;802;-68
2023/12/07 03:10:20;;;;;;;;;;;;;;;16.80;43.29;100031.00;10327643;28;1956;-68
2023/12/07 03:15:16;;;;;;;;;;;;;;;16.81;43.11;100028.28;10327323;28;814;-69
2023/12/07 03:20:12;;;;;;;;;;;;;;;16.82;43.30;100018.59;10326608;28;766;-68
2023/12/07 03:25:08;;;;;;;;;;;;;;;16.80;43.18;100018.69;10327518;28;899;-68
2023/12/07 03:30:04;;;;;;;;;;;;;;;16.79;43.45;100014.34;10326603;28;1890;-68
2023/12/07 03:35:00;;;;;;;;;;;;;;;16.80;43.29;100015.19;10326988;28;1307;-68
2023/12/07 03:39:56;;;;;;;;;;;;;;;16.80;43.42;100012.56;10327062;28;850;-68
2023/12/07 03:44:52;;;;;;;;;;;;;;;16.79;43.43;100010.81;10326245;28;814;-69
2023/12/07 03:49:48;;;;;;;;;;;;;;;16.80;43.27;100009.94;10326610;28;1965;-69
2023/12/07 03:54:43;;;;;;;;;;;;;;;16.80;43.51;100010.78;10325955;28;822;-68
2023/12/07 03:59:39;;;;;;;;;;;;;;;16.77;43.15;100007.38;10326502;28;830;-68
2023/12/07 04:04:35;;;;;;;;;;;;;;;16.76;43.44;100014.38;10325730;28;801;-68
2023/12/07 04:09:31;;;;;;;;;;;;;;;16.77;43.30;100010.91;10324969;28;1914;-69
2023/12/07 04:14:27;;;;;;;;;;;;;;;16.75;43.32;100007.41;10325515;28;965;-69
2023/12/07 04:19:23;;;;;;;;;;;;;;;16.72;43.26;100012.78;10325790;28;867;-68
2023/12/07 04:24:19;;;;;;;;;;;;;;;16.74;43.46;100025.88;10326523;28;858;-68
2023/12/07 04:29:15;;;;;;;;;;;;;;;16.72;43.54;100023.31;10325729;28;2006;-68
2023/12/07 04:34:11;;;;;;;;;;;;;;;16.75;43.29;100025.00;10332430;28;1352;-68
2023/12/07 04:39:08;;;;;;;;;;;;;;;16.80;43.21;100026.56;10333933;28;997;-68
2023/12/07 04:44:04;;;;;;;;;;;;;;;16.80;43.35;100029.22;10333863;28;851;-68
2023/12/07 04:48:59;;;;;;;;;;;;;;;16.83;43.26;100036.13;10333039;28;1906;-68
2023/12/07 04:53:55;;;;;;;;;;;;;;;16.85;43.24;100045.72;10334082;28;908;-69
2023/12/07 04:58:51;;;;;;;;;;;;;;;16.92;43.01;100040.22;10332963;28;913;-69
2023/12/07 05:03:47;;;;;;;;;;;;;;;16.99;42.75;100047.84;10333018;28;779;-69
2023/12/07 05:08:43;;;;;;;;;;;;;;;17.01;43.02;100038.13;10332131;28;1890;-70
2023/12/07 05:13:39;;;;;;;;;;;;;;;17.04;43.06;100039.81;10332054;28;1145;-69
2023/12/07 05:18:35;;;;;;;;;;;;;;;17.10;42.69;100039.56;10331869;28;758;-70
2023/12/07 05:23:31;;;;;;;;;;;;;;;17.11;42.72;100043.06;10333102;28;850;-69
2023/12/07 05:28:26;;;;;;;;;;;;;;;17.09;43.07;100043.13;10331421;28;1894;-69
2023/12/07 05:33:22;;;;;;;;;;;;;;;17.09;43.07;100053.66;10331145;28;1245;-70
2023/12/07 05:38:18;;;;;;;;;;;;;;;17.08;43.06;100044.91;10330941;28;963;-69
2023/12/07 05:43:14;;;;;;;;;;;;;;;17.11;42.89;100061.50;10330484;28;781;-69
2023/12/07 05:48:11;;;;;;;;;;;;;;;17.11;42.82;100066.75;10330111;28;1917;-69
2023/12/07 05:53:07;;;;;;;;;;;;;;;17.09;43.11;100069.47;10331212;28;810;-69
2023/12/07 05:58:03;;;;;;;;;;;;;;;17.14;42.81;100062.25;10331072;28;799;-70
2023/12/07 06:02:59;;;;;;;;;;;;;;;17.19;42.98;100065.59;10330838;28;866;-72
2023/12/07 06:07:56;;;;;;;;;;;;;;;17.14;43.36;100061.41;10330745;28;1957;-70
2023/12/07 06:12:52;;;;;;;;;;;;;;;17.18;43.04;100069.13;10330015;28;948;-70
2023/12/07 06:17:48;;;;;;;;;;;;;;;17.19;43.11;100072.66;10329983;28;838;-69
2023/12/07 06:22:43;;;;;;;;;;;;;;;17.10;43.17;100073.81;10330106;28;881;-72
2023/12/07 06:27:39;;;;;;;;;;;;;;;17.05;43.47;100079.22;10329244;28;1959;-69
2023/12/07 06:32:35;;;;;;;;;;;;;;;17.01;43.46;100079.41;10328928;28;1279;-70
2023/12/07 06:37:31;;;;;;;;;;;;;;;16.97;43.48;100073.38;10328848;28;810;-70
2023/12/07 06:42:27;;;;;;;;;;;;;;;16.95;43.40;100076.97;10329372;28;850;-69
2023/12/07 06:47:23;;;;;;;;;;;;;;;16.92;43.59;100077.09;10328490;28;1914;-69
2023/12/07 06:52:19;;;;;;;;;;;;;;;16.92;43.59;100082.34;10328868;28;807;-71
2023/12/07 06:57:15;;;;;;;;;;;;;;;16.95;43.56;100090.13;10327899;28;862;-70
2023/12/07 07:02:11;;;;;;;;;;;;;;;16.99;43.38;100068.06;10328738;28;938;-69
2023/12/07 07:07:06;;;;;;;;;;;;;;;16.98;43.31;100082.16;10328082;28;1910;-70
2023/12/07 07:12:02;;;;;;;;;;;;;;;17.02;43.39;100079.34;10327725;28;923;-69
2023/12/07 07:16:58;;;;;;;;;;;;;;;17.02;43.07;100073.22;10327366;28;1004;-67
2023/12/07 07:21:54;;;;;;;;;;;;;;;16.94;43.35;100081.38;10327757;28;945;-69
2023/12/07 07:26:50;;;;;;;;;;;;;;;17.05;42.74;100063.44;10326762;28;1951;-69
2023/12/07 07:31:46;;;;;;;;;;;;;;;17.08;42.69;100055.44;10327362;28;919;-69
2023/12/07 07:36:42;;;;;;;;;;;;;;;17.08;42.97;100049.28;10326128;28;1454;-69
2023/12/07 07:41:38;;;;;;;;;;;;;;;17.13;42.81;100052.63;10327007;28;823;-69
2023/12/07 07:46:33;;;;;;;;;;;;;;;17.13;42.93;100049.13;10326833;28;1918;-69
2023/12/07 07:51:29;;;;;;;;;;;;;;;17.14;42.61;100048.25;10326114;28;966;-69
2023/12/07 07:56:25;;;;;;;;;;;;;;;17.15;42.64;100058.69;10326533;28;821;-69
2023/12/07 08:01:21;;;;;;;;;;;;;;;17.14;42.80;100051.72;10326488;28;925;-69
2023/12/07 08:06:17;;;;;;;;;;;;;;;17.15;42.69;100058.69;10325499;28;1894;-69
2023/12/07 08:11:13;;;;;;;;;;;;;;;17.16;42.66;100052.53;10326208;28;855;-69
2023/12/07 08:16:12;;;;;;;;;;;;;;;17.16;42.67;100042.00;10324952;28;929;-69
2023/12/07 08:21:08;;;;;;;;;;;;;;;17.15;42.68;100042.91;10325454;28;932;-69
2023/12/07 08:26:04;;;;;;;;;;;;;;;17.18;42.66;100050.69;10325270;28;1905;-69
2023/12/07 08:31:00;;;;;;;;;;;;;;;17.18;42.58;100048.06;10326152;28;844;-69
2023/12/07 08:35:56;;;;;;;;;;;;;;;17.16;42.70;100054.28;10326089;28;1428;-69
2023/12/07 08:40:52;;;;;;;;;;;;;;;17.19;42.43;100049.78;10325218;28;849;-69
2023/12/07 08:45:48;;;;;;;;;;;;;;;17.19;42.50;100038.41;10324469;28;1910;-69
2023/12/07 08:50:44;;;;;;;;;;;;;;;17.18;42.45;100042.78;10324269;28;826;-69
2023/12/07 08:55:40;;;;;;;;;;;;;;;17.20;42.48;100045.38;10325058;28;831;-68
2023/12/07 09:00:36;;;;;;;;;;;;;;;17.16;42.64;100055.19;10325962;28;904;-67
2023/12/07 09:05:31;;;;;;;;;;;;;;;17.08;42.68;100068.63;10325161;28;964;-70
2023/12/07 09:10:28;;;;;;;;;;;;;;;17.21;42.41;100068.16;10324421;28;1957;-72
2023/12/07 09:15:23;;;;;;;;;;;;;;;17.19;42.49;100081.41;10325316;28;887;-70
2023/12/07 09:20:19;;;;;;;;;;;;;;;17.20;42.72;100076.97;10330893;28;1248;-70
2023/12/07 09:25:15;;;;;;;;;;;;;;;17.13;42.79;100081.59;10332517;28;814;-70
2023/12/07 09:30:11;;;;;;;;;;;;;;;17.08;42.69;100078.25;10331550;28;1897;-69
2023/12/07 09:35:07;;;;;;;;;;;;;;;17.03;42.87;100082.84;10331406;28;1882;-69
2023/12/07 09:40:04;;;;;;;;;;;;;;;17.05;43.00;100088.91;10331318;28;818;-69
2023/12/07 09:45:01;;;;;;;;;;;;;;;17.05;42.88;100081.00;10330924;28;989;-69
2023/12/07 09:49:57;;;;;;;;;;;;;;;17.04;43.00;100067.00;10330726;28;1910;-69
2023/12/07 09:54:53;;;;;;;;;;;;;;;17.05;42.80;100052.91;10330607;28;763;-69
2023/12/07 09:59:49;;;;;;;;;;;;;;;17.11;42.95;100054.47;10330388;28;914;-70
2023/12/07 10:04:45;;;;;;;;;;;;;;;17.12;42.88;100043.00;10330269;28;856;-69
2023/12/07 10:09:42;;;;;;;;;;;;;;;17.18;42.66;100048.06;10329442;28;1886;-70
2023/12/07 10:14:38;;;;;;;;;;;;;;;17.20;43.10;100037.47;10329906;28;1719;-72
2023/12/07 10:19:34;;;;;;;;;;;;;;;17.23;42.89;100040.84;10330358;28;907;-70
2023/12/07 10:24:30;;;;;;;;;;;;;;;17.27;42.82;100031.94;10329061;28;858;-68
2023/12/07 10:29:26;;;;;;;;;;;;;;;17.28;42.79;100023.09;10329846;28;1957;-69
2023/12/07 10:34:22;;;;;;;;;;;;;;;17.35;42.79;100005.31;10329387;28;1148;-70
2023/12/07 10:39:18;;;;;;;;;;;;;;;17.29;42.78;99995.84;10328370;28;921;-70
2023/12/07 10:44:14;;;;;;;;;;;;;;;17.35;42.82;99994.75;10328711;28;1040;-72
2023/12/07 10:49:10;;;;;;;;;;;;;;;17.34;42.73;99990.38;10328450;28;1914;-71
2023/12/07 10:54:07;;;;;;;;;;;;;;;17.32;42.78;99992.25;10329014;28;917;-71
2023/12/07 10:59:03;;;;;;;;;;;;;;;17.35;43.04;99976.31;10328061;28;970;-70
2023/12/07 11:03:59;;;;;;;;;;;;;;;17.42;42.85;99984.84;10328474;28;909;-70
2023/12/07 11:08:55;;;;;;;;;;;;;;;17.39;42.89;99977.03;10327639;28;1890;-69
2023/12/07 11:13:51;;;;;;;;;;;;;;;17.41;42.94;99976.06;10327482;28;997;-70
2023/12/07 11:18:46;;;;;;;;;;;;;;;17.44;42.75;99964.56;10327956;28;767;-70
2023/12/07 11:23:42;;;;;;;;;;;;;;;17.42;42.84;99946.19;10327702;28;834;-70
2023/12/07 11:28:38;;;;;;;;;;;;;;;17.41;42.78;99935.69;10326799;28;1890;-70
2023/12/07 11:33:34;;;;;;;;;;;;;;;17.43;42.81;99931.22;10327446;28;1303;-70
2023/12/07 11:38:30;;;;;;;;;;;;;;;17.45;42.97;99921.50;10327159;28;830;-71
2023/12/07 11:43:26;;;;;;;;;;;;;;;17.46;42.83;99916.16;10326233;28;873;-70
2023/12/07 11:48:22;;;;;;;;;;;;;;;17.50;42.89;99903.69;10326180;28;1902;-70
2023/12/07 11:53:18;;;;;;;;;;;;;;;17.53;43.12;99895.69;10325166;28;1109;-70
2023/12/07 11:58:14;;;;;;;;;;;;;;;17.57;42.78;99891.16;10323369;28;1113;-72
2023/12/07 12:03:11;;;;;;;;;;;;;;;17.62;42.81;99876.00;10323653;28;1033;-70
2023/12/07 12:08:07;;;;;;;;;;;;;;;17.61;42.68;99876.94;10325228;28;1897;-70
2023/12/07 12:13:06;;;;;;;;;;;;;;;17.65;42.92;99867.97;10325579;28;944;-70
2023/12/07 12:18:02;;;;;;;;;;;;;;;17.68;42.75;99871.34;10324563;28;1009;-70
2023/12/07 12:22:58;;;;;;;;;;;;;;;17.73;42.52;99871.16;10323707;28;882;-69
2023/12/07 12:27:54;;;;;;;;;;;;;;;17.76;42.54;99855.19;10325312;28;1894;-70
2023/12/07 12:32:50;;;;;;;;;;;;;;;17.78;42.72;99855.16;10325034;28;1782;-70
2023/12/07 12:37:46;;;;;;;;;;;;;;;17.78;42.56;99841.97;10326218;28;858;-70
2023/12/07 12:42:42;;;;;;;;;;;;;;;17.83;42.37;99826.84;10324432;28;774;-71
2023/12/07 12:47:38;;;;;;;;;;;;;;;17.87;42.47;99828.44;10324591;28;1910;-71
2023/12/07 12:52:33;;;;;;;;;;;;;;;17.90;42.40;99826.53;10326690;28;930;-73
2023/12/07 12:57:29;;;;;;;;;;;;;;;17.95;42.29;99814.00;10332647;28;830;-71
2023/12/07 13:02:25;;;;;;;;;;;;;;;18.01;42.39;99812.03;10331812;28;773;-70
2023/12/07 13:07:21;;;;;;;;;;;;;;;17.97;42.47;99811.28;10332680;28;1960;-70
2023/12/07 13:12:17;;;;;;;;;;;;;;;17.90;42.53;99809.84;10331555;28;775;-70
2023/12/07 13:17:13;;;;;;;;;;;;;;;17.95;42.60;99808.72;10331906;28;766;-71
2023/12/07 13:22:09;;;;;;;;;;;;;;;17.95;42.16;99811.38;10331143;28;877;-71
2023/12/07 13:27:05;;;;;;;;;;;;;;;17.98;42.40;99804.25;10331421;28;1961;-70
2023/12/07 13:32:00;;;;;;;;;;;;;;;18.05;42.44;99803.03;10332150;28;1030;-70
2023/12/07 13:36:56;;;;;;;;;;;;;;;18.07;42.16;99807.31;10331895;28;1358;-70
2023/12/07 13:41:52;;;;;;;;;;;;;;;18.02;42.37;99804.03;10330731;28;799;-70
2023/12/07 13:46:48;;;;;;;;;;;;;;;17.92;42.64;99802.72;10331032;28;1971;-71
2023/12/07 13:51:46;;;;;;;;;;;;;;;17.86;42.61;99802.97;10330746;28;802;-71
2023/12/07 13:56:42;;;;;;;;;;;;;;;17.88;42.54;99796.72;10329762;28;899;-70
2023/12/07 14:01:39;;;;;;;;;;;;;;;17.83;42.84;99787.28;10329635;28;1275;-70
2023/12/07 14:06:35;;;;;;;;;;;;;;;17.81;42.71;99783.84;10329079;28;1897;-70
2023/12/07 14:11:31;;;;;;;;;;;;;;;17.81;42.77;99792.63;10330211;28;869;-70
2023/12/07 14:16:27;;;;;;;;;;;;;;;17.79;42.85;99788.31;10329425;28;926;-71
2023/12/07 14:21:24;;;;;;;;;;;;;;;17.72;42.88;99785.09;10329670;28;818;-70
2023/12/07 14:26:20;;;;;;;;;;;;;;;17.70;42.84;99784.28;10328591;28;1965;-70
2023/12/07 14:31:16;;;;;;;;;;;;;;;17.60;43.24;99777.69;10329192;28;846;-70
2023/12/07 14:36:12;;;;;;;;;;;;;;;17.51;43.26;99769.25;10328359;28;1267;-70
2023/12/07 14:41:08;;;;;;;;;;;;;;;17.47;43.26;99777.34;10328214;28;887;-70
2023/12/07 14:46:04;;;;;;;;;;;;;;;17.38;43.46;99761.94;10328617;28;1914;-69
2023/12/07 14:51:00;;;;;;;;;;;;;;;17.36;43.50;99746.16;10327807;28;778;-69
2023/12/07 14:55:57;;;;;;;;;;;;;;;17.34;43.44;99716.38;10327664;28;876;-70
2023/12/07 15:00:53;;;;;;;;;;;;;;;17.37;43.44;99715.41;10327841;28;851;-70
2023/12/07 15:05:49;;;;;;;;;;;;;;;17.38;43.49;99706.59;10327705;28;794;-70
2023/12/07 15:10:45;;;;;;;;;;;;;;;17.35;43.56;99701.47;10326870;28;1943;-71
2023/12/07 15:15:41;;;;;;;;;;;;;;;17.23;43.92;99698.41;10326697;28;887;-70
2023/12/07 15:20:37;;;;;;;;;;;;;;;17.18;43.62;99689.81;10327325;28;899;-72
2023/12/07 15:25:33;;;;;;;;;;;;;;;17.16;43.50;99677.63;10327155;28;868;-70
2023/12/07 15:30:29;;;;;;;;;;;;;;;17.29;42.83;99681.47;10326246;28;1898;-70
2023/12/07 15:35:25;;;;;;;;;;;;;;;17.36;42.20;99675.03;10327423;28;1100;-70
2023/12/07 15:40:21;;;;;;;;;;;;;;;17.43;42.11;99683.53;10326548;28;909;-70
2023/12/07 15:45:17;;;;;;;;;;;;;;;17.43;42.18;99673.00;10326570;28;869;-70
2023/12/07 15:50:12;;;;;;;;;;;;;;;17.47;41.99;99666.66;10326827;28;1914;-69
2023/12/07 15:55:08;;;;;;;;;;;;;;;17.47;42.19;99664.03;10326102;28;881;-70
2023/12/07 16:00:06;;;;;;;;;;;;;;;17.44;42.17;99649.22;10326246;28;897;-70
2023/12/07 16:05:02;;;;;;;;;;;;;;;17.51;42.13;99639.28;10325860;28;1013;-69
2023/12/07 16:09:58;;;;;;;;;;;;;;;17.48;42.27;99634.13;10326284;28;1949;-70
2023/12/07 16:14:56;;;;;;;;;;;;;;;17.47;42.13;99625.34;10325646;28;821;-70
2023/12/07 16:19:52;;;;;;;;;;;;;;;17.51;42.31;99624.31;10325533;28;809;-70
2023/12/07 16:24:48;;;;;;;;;;;;;;;17.52;42.33;99612.81;10326053;28;860;-69
2023/12/07 16:29:44;;;;;;;;;;;;;;;17.53;42.25;99600.53;10325771;28;1937;-70
2023/12/07 16:34:39;;;;;;;;;;;;;;;17.57;42.06;99594.19;10324748;28;1424;-70
2023/12/07 16:39:35;;;;;;;;;;;;;;;17.56;42.20;99592.47;10325767;28;868;-69
2023/12/07 16:44:31;;;;;;;;;;;;;;;17.60;42.21;99596.69;10324356;28;1083;-70
2023/12/07 16:49:27;;;;;;;;;;;;;;;17.60;42.00;99593.19;10325008;28;1967;-70
2023/12/07 16:54:24;;;;;;;;;;;;;;;17.59;42.16;99583.59;10324990;28;826;-69
2023/12/07 16:59:20;;;;;;;;;;;;;;;17.61;42.34;99579.97;10324691;28;842;-69
2023/12/07 17:04:16;;;;;;;;;;;;;;;17.59;42.39;99566.00;10324020;28;956;-69
2023/12/07 17:09:13;;;;;;;;;;;;;;;17.61;42.15;99550.13;10324723;28;1893;-69
2023/12/07 17:14:09;;;;;;;;;;;;;;;17.66;42.40;99551.63;10324593;28;827;-68
2023/12/07 17:19:05;;;;;;;;;;;;;;;17.65;42.33;99538.50;10324973;28;884;-70
2023/12/07 17:24:01;;;;;;;;;;;;;;;17.61;42.45;99540.44;10324227;28;897;-69
2023/12/07 17:28:57;;;;;;;;;;;;;;;17.64;42.30;99535.00;10324679;28;1953;-69
2023/12/07 17:33:53;;;;;;;;;;;;;;;17.64;42.24;99529.75;10324186;28;1100;-70
2023/12/07 17:38:51;;;;;;;;;;;;;;;17.64;42.34;99529.75;10327185;28;797;-69
2023/12/07 17:43:47;;;;;;;;;;;;;;;17.68;42.25;99533.97;10331211;28;933;-69
2023/12/07 17:48:44;;;;;;;;;;;;;;;17.66;42.28;99532.31;10330890;28;1910;-69
2023/12/07 17:53:40;;;;;;;;;;;;;;;17.64;42.22;99527.09;10331044;28;853;-69
2023/12/07 17:58:36;;;;;;;;;;;;;;;17.66;42.23;99532.31;10331240;28;819;-69
2023/12/07 18:03:32;;;;;;;;;;;;;;;17.68;42.29;99530.44;10329866;28;984;-69
2023/12/07 18:08:28;;;;;;;;;;;;;;;17.70;42.03;99534.72;10330222;28;1902;-69
2023/12/07 18:13:24;;;;;;;;;;;;;;;17.67;42.31;99526.94;10329472;28;1000;-70
2023/12/07 18:18:20;;;;;;;;;;;;;;;17.70;42.08;99512.78;10329914;28;865;-70
2023/12/07 18:23:15;;;;;;;;;;;;;;;17.72;42.07;99511.78;10331226;28;861;-69
2023/12/07 18:28:11;;;;;;;;;;;;;;;17.73;42.13;99497.66;10328822;28;1890;-69
2023/12/07 18:33:07;;;;;;;;;;;;;;;17.72;42.16;99505.66;10329450;28;1926;-68
2023/12/07 18:38:04;;;;;;;;;;;;;;;17.74;42.12;99509.94;10329182;28;889;-70
2023/12/07 18:43:00;;;;;;;;;;;;;;;17.72;42.07;99517.06;10329460;28;855;-69
2023/12/07 18:47:56;;;;;;;;;;;;;;;17.71;42.19;99498.66;10329527;28;1983;-69
2023/12/07 18:52:52;;;;;;;;;;;;;;;17.71;42.15;99482.84;10327411;28;735;-69
2023/12/07 18:57:49;;;;;;;;;;;;;;;17.70;42.36;99481.16;10328265;28;874;-69
2023/12/07 19:02:45;;;;;;;;;;;;;;;17.74;42.10;99472.19;10328164;28;858;-70
2023/12/07 19:07:41;;;;;;;;;;;;;;;17.73;42.21;99478.34;10327214;28;1890;-69
2023/12/07 19:12:37;;;;;;;;;;;;;;;17.73;42.31;99481.84;10328262;28;859;-69
2023/12/07 19:17:33;;;;;;;;;;;;;;;17.76;42.11;99480.84;10327578;28;834;-69
2023/12/07 19:22:29;;;;;;;;;;;;;;;17.73;42.31;99470.44;10327295;28;772;-70
2023/12/07 19:27:24;;;;;;;;;;;;;;;17.73;42.20;99462.53;10327673;28;1960;-69
2023/12/07 19:32:22;;;;;;;;;;;;;;;17.75;42.18;99448.38;10327718;28;1046;-69
2023/12/07 19:37:17;;;;;;;;;;;;;;;17.76;41.99;99430.75;10327377;28;1140;-69
2023/12/07 19:42:13;;;;;;;;;;;;;;;17.78;42.06;99430.69;10327199;28;825;-69
2023/12/07 19:47:09;;;;;;;;;;;;;;;17.77;42.11;99431.63;10326327;28;1914;-69
2023/12/07 19:52:06;;;;;;;;;;;;;;;17.75;42.11;99413.25;10327031;28;914;-69
2023/12/07 19:57:02;;;;;;;;;;;;;;;17.77;42.06;99386.81;10326916;28;851;-71
2023/12/07 20:01:58;;;;;;;;;;;;;;;17.62;42.28;99393.69;10326241;28;841;-71
2023/12/07 20:06:54;;;;;;;;;;;;;;;17.56;42.44;99392.19;10326415;28;1898;-70
2023/12/07 20:11:50;;;;;;;;;;;;;;;17.67;41.89;99387.25;10325731;28;873;-70
2023/12/07 20:16:46;;;;;;;;;;;;;;;17.67;41.83;99376.72;10325623;28;763;-68
2023/12/07 20:21:42;;;;;;;;;;;;;;;17.67;41.94;99366.16;10326161;28;770;-69
2023/12/07 20:26:38;;;;;;;;;;;;;;;17.69;41.89;99359.06;10326226;28;1898;-69
2023/12/07 20:31:33;;;;;;;;;;;;;;;17.69;41.90;99356.41;10325920;28;904;-70
2023/12/07 20:36:29;;;;;;;;;;;;;;;17.66;41.92;99332.84;10326207;28;1473;-69
2023/12/07 20:41:25;;;;;;;;;;;;;;;17.63;42.25;99311.91;10325191;28;881;-69
2023/12/07 20:46:21;;;;;;;;;;;;;;;17.61;42.04;99303.22;10324965;28;1971;-69
2023/12/07 20:51:17;;;;;;;;;;;;;;;17.61;42.09;99302.38;10325539;28;795;-69
2023/12/07 20:56:17;;;;;;;;;;;;;;;17.59;42.09;99299.81;10324973;28;767;-70
2023/12/07 21:01:13;;;;;;;;;;;;;;;17.63;42.03;99300.50;10324998;28;911;-68
2023/12/07 21:06:10;;;;;;;;;;;;;;;17.58;42.08;99295.47;10324630;28;988;-69
2023/12/07 21:11:09;;;;;;;;;;;;;;;17.54;42.10;99275.47;10324465;28;938;-70
2023/12/07 21:16:04;;;;;;;;;;;;;;;17.58;42.19;99255.06;10330754;28;920;-69
2023/12/07 21:21:01;;;;;;;;;;;;;;;17.55;42.33;99242.91;10332403;28;826;-69
2023/12/07 21:25:57;;;;;;;;;;;;;;;17.53;42.23;99226.34;10331856;28;957;-69
2023/12/07 21:30:53;;;;;;;;;;;;;;;17.50;42.41;99215.94;10331630;28;1961;-69
2023/12/07 21:35:49;;;;;;;;;;;;;;;17.51;42.20;99197.41;10331105;28;1363;-70
2023/12/07 21:40:44;;;;;;;;;;;;;;;17.52;42.43;99208.81;10331352;28;774;-69
2023/12/07 21:45:42;;;;;;;;;;;;;;;17.47;42.28;99192.38;10331099;28;2148;-69
2023/12/07 21:50:38;;;;;;;;;;;;;;;17.43;42.53;99180.31;10331048;28;1902;-68
2023/12/07 21:55:34;;;;;;;;;;;;;;;17.42;42.49;99168.03;10330110;28;893;-69
2023/12/07 22:00:30;;;;;;;;;;;;;;;17.41;42.51;99163.72;10330635;28;972;-68
2023/12/07 22:05:26;;;;;;;;;;;;;;;17.36;42.64;99155.19;10330447;28;802;-69
2023/12/07 22:10:22;;;;;;;;;;;;;;;17.33;42.82;99165.91;10330202;28;1967;-69
2023/12/07 22:15:18;;;;;;;;;;;;;;;17.28;42.73;99142.41;10330080;28;839;-69
2023/12/07 22:20:13;;;;;;;;;;;;;;;17.29;42.65;99146.75;10330509;28;1010;-69
2023/12/07 22:25:09;;;;;;;;;;;;;;;17.27;42.89;99138.09;10328840;28;1044;-69
2023/12/07 22:30:05;;;;;;;;;;;;;;;17.25;42.85;99117.09;10329446;28;1893;-68
2023/12/07 22:35:01;;;;;;;;;;;;;;;17.20;42.91;99100.66;10330007;28;1317;-69
2023/12/07 22:39:57;;;;;;;;;;;;;;;17.22;42.91;99069.00;10329022;28;922;-69
2023/12/07 22:44:53;;;;;;;;;;;;;;;17.20;42.92;99065.56;10328318;28;897;-69
2023/12/07 22:49:49;;;;;;;;;;;;;;;17.18;42.85;99038.47;10328619;28;1965;-69
2023/12/07 22:54:44;;;;;;;;;;;;;;;17.17;43.11;99024.44;10328495;28;785;-69
2023/12/07 22:59:40;;;;;;;;;;;;;;;17.17;42.86;99013.91;10329009;28;921;-69
2023/12/07 23:04:36;;;;;;;;;;;;;;;17.15;43.02;98999.97;10328110;28;892;-69
2023/12/07 23:09:32;;;;;;;;;;;;;;;17.15;43.11;99004.41;10327837;28;1894;-70
2023/12/07 23:14:28;;;;;;;;;;;;;;;17.16;43.07;98996.44;10327737;28;826;-69
2023/12/07 23:19:24;;;;;;;;;;;;;;;17.13;42.81;98972.88;10327545;28;1002;-69
2023/12/07 23:24:20;;;;;;;;;;;;;;;17.13;43.05;98978.13;10327328;28;766;-69
2023/12/07 23:29:16;;;;;;;;;;;;;;;17.16;43.05;98991.16;10327629;28;1973;-69
2023/12/07 23:34:12;;;;;;;;;;;;;;;17.13;43.05;98958.84;10327856;28;1095;-68
2023/12/07 23:39:08;;;;;;;;;;;;;;;17.12;42.94;98951.91;10326071;28;906;-69
2023/12/07 23:44:04;;;;;;;;;;;;;;;17.12;43.03;98942.22;10309624;28;734;-69
2023/12/07 23:49:00;;;;;;;;;;;;;;;17.13;43.03;98959.69;10326374;28;1980;-69
2023/12/07 23:53:55;;;;;;;;;;;;;;;17.10;43.04;98949.34;10326853;28;852;-69
2023/12/07 23:58:51;;;;;;;;;;;;;;;17.11;43.03;98947.53;10326141;28;880;-69
